Details From KLGA - La Guardia
To MDPC - Punta Cana Intl
Flight Number -
Tags Generated
Created
Modified
Stats Distance 1,364 nm / 2,527 km
Max Altitude 0 ft / 0 m
Waypoints 4
Social Downloads 1
Likes 0
Share VATSIM

Download

Looking for another format? Having issues loading an existing format? Contact us
Advertisement - Login to hide

Notes

Generated

Route

KLGA ZIBUT PNA MDPC

ID Type Via Altitude Latitude Longitude Leg Dist Tot Dist Heading (true) Name
O KLGA APT - 0 ft / 0 m 40.78229˚ -73.87852˚ - 0 nm - -
ZIBUT FIX - 0 ft / 0 m 36.93841˚ -72.66617˚ 237 nm 237 nm 166° / 167° -
PNA VOR - 0 ft / 0 m 18.56725˚ -68.38331˚ 1126 nm 1363 nm 167° / 169° PUNTA CANA VOR-DME
O MDPC APT - 0 ft / 0 m 18.56610˚ -68.37806˚ 0 nm 1364 nm 103° / 103° -

Altitude Profile

Advertisement - Login to hide

Weather


0- 5 10 15 20 25 30 35+ Temperature / ° C

Clouds and Precipitation
Forecast for 2017-12-16 12:00 UTC. Updated 2 hours ago

Ground ~20,000 ft ~40,000 ft Winds

KLGA

Details ICAO KLGA (LGA)
Name La Guardia
Region United States
Timezone America/New_York (UTC-5.0)
Stats Elevation 22 ft / 7 m (AMSL)
Location 40.777236° -73.872610°
Runways 2
Magnetic Variation 12.980° W

METAR

KLGA 161251Z 24014KT 10SM FEW040 SCT250 M02/M09 A3004 RMK AO2 SLP171 T10171089 $

Decode

TAF

KLGA 161234Z 1613/1718 26014KT P6SM FEW040 SCT250 FM161400 26016G26KT P6SM BKN060 BKN130 FM162100 27015KT P6SM VCSH BKN035 FM170000 31012KT P6SM BKN035 FM170500 34008KT P6SM SCT045 FM171700 31005KT P6SM FEW040 SCT250

Decode

Departure Runways

ID Width Length Bearing (true) Bearing (mag) Surface Threshold Offset Overrun Length
04 151 ft / 46 m 7,002 ft / 2,134 m 32.04° 45.02° Asphalt 0 ft / 0 m 312 ft / 95 m
13 151 ft / 46 m 6,990 ft / 2,130 m 122.24° 135.22° Asphalt 0 ft / 0 m 98 ft / 30 m
22 151 ft / 46 m 7,002 ft / 2,134 m 212.05° 225.03° Asphalt 0 ft / 0 m 92 ft / 28 m
31 151 ft / 46 m 6,990 ft / 2,130 m 302.26° 315.24° Asphalt 0 ft / 0 m 361 ft / 110 m

MDPC

Details ICAO MDPC (PUJ)
Name Punta Cana Intl
Region Dominican Republic
Timezone America/Santo_Domingo (UTC-4.0)
Stats Elevation 46 ft / 14 m (AMSL)
Location 18.570574° -68.366130°
Runways 2
Magnetic Variation 12.180° W

METAR

MDPC 161300Z 05010KT 9999 FEW021 28/22 Q1019

Decode

TAF

Not found

Destination Runways

ID Width Length Bearing (true) Bearing (mag) Surface Threshold Offset Overrun Length
08 148 ft / 45 m 10,110 ft / 3,082 m 74.20° 86.38° Asphalt 0 ft / 0 m 374 ft / 114 m
09 148 ft / 45 m 10,163 ft / 3,098 m 84.79° 96.97° Asphalt 0 ft / 0 m 374 ft / 114 m
26 148 ft / 45 m 10,110 ft / 3,082 m 254.21° 266.39° Asphalt 0 ft / 0 m 374 ft / 114 m
27 148 ft / 45 m 10,163 ft / 3,098 m 264.80° 276.98° Asphalt 0 ft / 0 m 374 ft / 114 m

Popular Alternatives